createdAt,value
2023-04-29T00:01:59.577Z,95341.22
2023-04-29T00:04:29.086Z,95337.88
2023-04-29T00:06:58.086Z,95329.16
2023-04-29T00:09:27.030Z,95325.34
2023-04-29T00:11:56.145Z,95320.16
2023-04-29T00:14:25.607Z,95326.75
2023-04-29T00:16:54.507Z,95315.38
2023-04-29T00:19:23.438Z,95316.56
2023-04-29T00:21:52.906Z,95316.84
2023-04-29T00:24:21.832Z,95322.25
2023-04-29T00:26:50.555Z,95312.75
2023-04-29T00:29:19.681Z,95314.41
2023-04-29T00:31:48.566Z,95318.41
2023-04-29T00:34:17.930Z,95315.50
2023-04-29T00:36:47.156Z,95310.34
2023-04-29T00:39:16.101Z,95315.78
2023-04-29T00:41:45.109Z,95312.88
2023-04-29T00:44:13.941Z,95311.53
2023-04-29T00:46:43.064Z,95310.09
2023-04-29T00:49:14.342Z,95307.03
2023-04-29T00:51:45.846Z,95305.63
2023-04-29T00:54:15.040Z,95297.81
2023-04-29T00:56:47.629Z,95297.59
2023-04-29T00:59:17.813Z,95292.41
2023-04-29T01:01:48.021Z,95289.94
2023-04-29T01:04:18.587Z,95284.78
2023-04-29T01:06:58.541Z,95286.91
2023-04-29T01:09:44.045Z,95273.28
2023-04-29T01:12:51.062Z,95265.72
2023-04-29T01:15:27.491Z,95247.91
2023-04-29T01:18:05.308Z,95250.63
2023-04-29T01:20:35.651Z,95243.78
2023-04-29T01:23:04.608Z,95248.47
2023-04-29T01:25:33.634Z,95257.34
2023-04-29T01:28:21.105Z,95256.97
2023-04-29T01:31:48.884Z,95242.53
2023-04-29T01:34:48.861Z,95243.84
2023-04-29T01:37:35.396Z,95246.34
2023-04-29T01:40:17.101Z,95239.88
2023-04-29T01:43:05.096Z,95242.69
2023-04-29T01:45:41.983Z,95243.38
2023-04-29T01:48:11.001Z,95237.75
2023-04-29T01:50:39.850Z,95227.09
2023-04-29T01:53:13.153Z,95225.91
2023-04-29T01:55:42.016Z,95227.31
2023-04-29T01:58:17.923Z,95240.38
2023-04-29T02:01:02.563Z,95238.84
2023-04-29T02:04:00.324Z,95241.81
2023-04-29T02:06:29.571Z,95237.06
2023-04-29T02:09:02.080Z,95241.09
2023-04-29T02:11:32.200Z,95210.94
2023-04-29T02:14:01.399Z,95222.16
2023-04-29T02:16:30.542Z,95222.47
2023-04-29T02:19:03.362Z,95220.56
2023-04-29T02:21:32.682Z,95211.50
2023-04-29T02:24:03.189Z,95216.41
2023-04-29T02:26:32.462Z,95214.91
2023-04-29T02:29:01.521Z,95211.97
2023-04-29T02:31:30.493Z,95206.31
2023-04-29T02:33:59.439Z,95214.53
2023-04-29T02:36:29.060Z,95219.41
2023-04-29T02:38:57.975Z,95214.88
2023-04-29T02:41:27.100Z,95206.78
2023-04-29T02:43:55.956Z,95210.53
2023-04-29T02:46:24.923Z,95214.25
2023-04-29T02:48:54.875Z,95212.28
2023-04-29T02:51:24.135Z,95205.13
2023-04-29T02:53:53.008Z,95201.13
2023-04-29T02:56:22.290Z,95195.53
2023-04-29T02:58:51.257Z,95204.59
2023-04-29T03:01:21.254Z,95193.16
2023-04-29T03:03:50.881Z,95178.56
2023-04-29T03:06:19.985Z,95179.72
2023-04-29T03:08:48.833Z,95167.69
2023-04-29T03:11:17.718Z,95177.56
2023-04-29T03:13:46.690Z,95178.63
2023-04-29T03:16:17.478Z,95172.84
2023-04-29T03:18:46.629Z,95173.69
2023-04-29T03:21:15.749Z,95167.59
2023-04-29T03:23:45.357Z,95155.69
2023-04-29T03:26:20.757Z,95158.03
2023-04-29T03:28:49.578Z,95151.88
2023-04-29T03:31:19.257Z,95147.63
2023-04-29T03:33:48.353Z,95143.41
2023-04-29T03:36:17.355Z,95140.41
2023-04-29T03:38:55.419Z,95143.91
2023-04-29T03:41:24.873Z,95140.13
2023-04-29T03:43:55.509Z,95135.50
2023-04-29T03:46:24.578Z,95127.06
2023-04-29T03:48:56.539Z,95130.13
2023-04-29T03:51:26.958Z,95145.16
2023-04-29T03:54:08.153Z,95137.06
2023-04-29T03:56:38.142Z,95122.84
2023-04-29T03:59:07.105Z,95131.66
2023-04-29T04:01:37.493Z,95128.94
2023-04-29T04:04:07.521Z,95119.59
2023-04-29T04:06:39.841Z,95120.19
2023-04-29T04:09:09.056Z,95134.97
2023-04-29T04:11:37.843Z,95126.38
2023-04-29T04:14:07.678Z,95126.34
2023-04-29T04:16:37.556Z,95119.88
2023-04-29T04:19:06.717Z,95109.50
2023-04-29T04:21:39.647Z,95108.97
2023-04-29T04:24:10.761Z,95113.06
2023-04-29T04:26:42.038Z,95095.84
2023-04-29T04:29:19.531Z,95099.25
2023-04-29T04:31:57.217Z,95098.13
2023-04-29T04:34:26.907Z,95100.22
2023-04-29T04:36:58.205Z,95100.88
2023-04-29T04:39:27.501Z,95110.94
2023-04-29T04:41:59.166Z,95093.50
2023-04-29T04:44:31.259Z,95093.09
2023-04-29T04:47:06.042Z,95093.53
2023-04-29T04:49:58.479Z,95085.78
2023-04-29T04:52:28.330Z,95087.72
2023-04-29T04:55:20.913Z,95089.00
2023-04-29T04:57:52.078Z,95076.59
2023-04-29T05:00:21.625Z,95063.97
2023-04-29T05:02:51.902Z,95066.91
2023-04-29T05:05:20.816Z,95068.44
2023-04-29T05:07:49.663Z,95060.06
2023-04-29T05:10:26.909Z,95086.38
2023-04-29T05:12:58.505Z,95084.72
2023-04-29T05:15:27.972Z,95100.44
2023-04-29T05:18:00.401Z,95087.88
2023-04-29T05:20:29.598Z,95084.94
2023-04-29T05:22:58.710Z,95080.25
2023-04-29T05:25:28.501Z,95078.47
2023-04-29T05:27:58.274Z,95075.06
2023-04-29T05:30:29.321Z,95075.22
2023-04-29T05:32:58.442Z,95076.03
2023-04-29T05:35:27.631Z,95080.97
2023-04-29T05:37:57.034Z,95064.03
2023-04-29T05:40:35.384Z,95067.94
2023-04-29T05:43:39.664Z,95066.88
2023-04-29T05:46:08.692Z,95060.53
2023-04-29T05:48:37.605Z,95058.44
2023-04-29T05:51:06.776Z,95063.16
2023-04-29T05:53:36.808Z,95049.66
2023-04-29T05:56:09.116Z,95045.94
2023-04-29T05:58:38.917Z,95037.31
2023-04-29T06:01:08.766Z,95025.31
2023-04-29T06:03:38.249Z,95028.25
2023-04-29T06:06:26.849Z,95023.25
2023-04-29T06:09:27.523Z,95027.25
2023-04-29T06:11:59.718Z,95029.75
2023-04-29T06:14:28.562Z,95023.03
2023-04-29T06:16:58.287Z,95024.97
2023-04-29T06:19:27.324Z,95023.47
2023-04-29T06:21:56.450Z,95029.03
2023-04-29T06:24:25.344Z,95021.47
2023-04-29T06:26:54.316Z,95017.53
2023-04-29T06:29:23.235Z,95020.72
2023-04-29T06:31:54.743Z,95016.66
2023-04-29T06:34:24.230Z,95015.47
2023-04-29T06:37:11.445Z,95010.78
2023-04-29T06:39:57.187Z,95007.97
2023-04-29T06:42:46.316Z,95001.69
2023-04-29T06:45:33.609Z,95000.75
2023-04-29T06:48:11.196Z,95008.06
2023-04-29T06:50:54.025Z,95002.16
2023-04-29T06:53:22.914Z,95004.47
2023-04-29T06:55:52.443Z,94992.06
2023-04-29T06:58:22.694Z,94993.00
2023-04-29T07:00:53.153Z,94992.16
2023-04-29T07:03:24.414Z,94995.56
2023-04-29T07:05:53.324Z,94985.38
2023-04-29T07:08:22.256Z,94982.22
2023-04-29T07:10:58.581Z,94991.56
2023-04-29T07:13:30.398Z,94990.13
2023-04-29T07:15:59.525Z,94989.06
2023-04-29T07:18:29.624Z,94991.50
2023-04-29T07:21:02.929Z,94988.13
2023-04-29T07:23:32.388Z,94983.81
2023-04-29T07:26:19.887Z,94977.38
2023-04-29T07:28:52.800Z,94978.25
2023-04-29T07:31:22.287Z,94968.00
2023-04-29T07:33:51.323Z,94969.06
2023-04-29T07:36:20.209Z,94965.00
2023-04-29T07:38:49.178Z,94968.72
2023-04-29T07:41:18.186Z,94964.56
2023-04-29T07:43:47.118Z,94972.38
2023-04-29T07:46:19.734Z,94973.22
2023-04-29T07:48:49.750Z,94967.47
2023-04-29T07:51:18.604Z,94969.19
2023-04-29T07:53:47.478Z,94972.13
2023-04-29T07:56:16.820Z,94976.31
2023-04-29T07:58:47.551Z,94985.03
2023-04-29T08:01:17.498Z,94974.59
2023-04-29T08:03:47.334Z,94987.81
2023-04-29T08:06:21.414Z,94997.59
2023-04-29T08:08:53.702Z,95005.34
2023-04-29T08:11:25.079Z,95003.91
2023-04-29T08:13:55.443Z,95006.63
2023-04-29T08:16:26.680Z,95005.34
2023-04-29T08:18:56.447Z,94997.38
2023-04-29T08:21:25.308Z,94994.03
2023-04-29T08:23:56.276Z,94996.44
2023-04-29T08:26:25.178Z,94993.00
2023-04-29T08:28:54.364Z,94989.91
2023-04-29T08:31:23.593Z,94988.25
2023-04-29T08:33:52.811Z,94996.31
2023-04-29T08:36:21.934Z,94994.00
2023-04-29T08:38:53.402Z,94996.25
2023-04-29T08:41:22.623Z,94998.56
2023-04-29T08:43:51.876Z,95003.22
2023-04-29T08:46:22.476Z,95001.25
2023-04-29T08:48:53.141Z,94997.72
2023-04-29T08:51:22.143Z,94993.41
2023-04-29T08:53:51.403Z,95018.50
2023-04-29T08:56:24.584Z,95013.94
2023-04-29T08:59:01.266Z,95027.16
2023-04-29T09:01:32.634Z,95023.09
2023-04-29T09:04:27.715Z,95021.72
2023-04-29T09:07:00.793Z,95029.97
2023-04-29T09:09:30.555Z,95031.56
2023-04-29T09:11:59.659Z,95028.97
2023-04-29T09:14:34.074Z,95034.09
2023-04-29T09:17:03.237Z,95039.19
2023-04-29T09:19:34.158Z,95045.84
2023-04-29T09:22:04.930Z,95028.97
2023-04-29T09:24:33.755Z,95029.41
2023-04-29T09:27:04.020Z,95025.63
2023-04-29T09:29:33.693Z,95040.28
2023-04-29T09:32:19.104Z,95027.22
2023-04-29T09:34:48.046Z,95029.53
2023-04-29T09:37:28.551Z,95031.06
2023-04-29T09:39:57.533Z,95034.47
2023-04-29T09:42:26.452Z,95043.31
2023-04-29T09:44:55.529Z,95042.47
2023-04-29T09:47:33.403Z,95036.25
2023-04-29T09:50:17.023Z,95036.88
2023-04-29T09:52:46.060Z,95032.53
2023-04-29T09:55:16.522Z,95030.19
2023-04-29T09:57:46.481Z,95034.16
2023-04-29T10:00:16.833Z,95032.00
2023-04-29T10:02:52.148Z,95035.16
2023-04-29T10:05:23.629Z,95034.13
2023-04-29T10:07:52.984Z,95031.88
2023-04-29T10:10:23.913Z,95031.13
2023-04-29T10:12:55.388Z,95016.13
2023-04-29T10:15:33.017Z,95007.63
2023-04-29T10:18:16.116Z,95012.84
2023-04-29T10:20:48.207Z,95009.59
2023-04-29T10:23:18.564Z,95012.81
2023-04-29T10:25:49.021Z,95008.28
2023-04-29T10:28:20.120Z,95010.84
2023-04-29T10:30:55.562Z,95005.81
2023-04-29T10:33:25.873Z,94999.25
2023-04-29T10:35:56.882Z,94995.81
2023-04-29T10:38:37.634Z,94986.97
2023-04-29T10:41:28.993Z,94986.66
2023-04-29T10:44:02.150Z,94986.00
2023-04-29T10:46:32.714Z,94986.88
2023-04-29T10:49:07.369Z,94993.50
2023-04-29T10:51:44.415Z,94991.69
2023-04-29T10:54:15.944Z,94992.16
2023-04-29T10:56:54.933Z,94990.22
2023-04-29T10:59:43.658Z,94990.47
2023-04-29T11:02:13.363Z,94989.97
2023-04-29T11:05:08.586Z,94996.03
2023-04-29T11:07:38.444Z,94984.09
2023-04-29T11:10:08.481Z,94981.13
2023-04-29T11:12:37.389Z,94988.16
2023-04-29T11:15:11.648Z,94978.69
2023-04-29T11:17:41.855Z,94979.16
2023-04-29T11:20:14.683Z,94978.81
2023-04-29T11:22:52.703Z,94966.56
2023-04-29T11:25:21.590Z,94974.34
2023-04-29T11:27:52.079Z,94966.31
2023-04-29T11:30:22.884Z,94961.41
2023-04-29T11:32:52.598Z,94965.69
2023-04-29T11:35:21.754Z,94966.53
2023-04-29T11:37:50.652Z,94977.31
2023-04-29T11:40:19.467Z,94990.81
2023-04-29T11:42:49.812Z,94986.22
2023-04-29T11:45:19.540Z,94977.00
2023-04-29T11:47:49.952Z,94963.91
2023-04-29T11:50:20.913Z,94959.69
2023-04-29T11:52:50.551Z,94960.06
2023-04-29T11:55:20.518Z,94953.19
2023-04-29T11:57:52.850Z,94953.94
2023-04-29T12:00:22.839Z,94950.16
2023-04-29T12:02:52.056Z,94951.31
2023-04-29T12:05:21.363Z,94949.75
2023-04-29T12:07:51.672Z,94944.75
2023-04-29T12:10:21.904Z,94932.09
2023-04-29T12:12:51.276Z,94944.78
2023-04-29T12:15:20.277Z,94952.47
2023-04-29T12:17:49.363Z,94954.38
2023-04-29T12:20:18.465Z,94955.88
2023-04-29T12:22:47.890Z,94965.88
2023-04-29T12:25:17.357Z,94975.09
2023-04-29T12:27:46.526Z,94971.63
2023-04-29T12:30:15.616Z,94971.63
2023-04-29T12:32:45.867Z,94967.78
2023-04-29T12:35:18.821Z,94961.25
2023-04-29T12:37:51.904Z,94961.25
2023-04-29T12:40:21.584Z,94970.88
2023-04-29T12:42:50.500Z,94975.06
2023-04-29T12:45:34.999Z,94980.06
2023-04-29T12:48:09.076Z,94979.66
2023-04-29T12:50:43.946Z,94978.53
2023-04-29T12:53:13.394Z,94965.47
2023-04-29T12:55:42.425Z,94936.28
2023-04-29T12:58:11.332Z,94948.56
2023-04-29T13:00:40.937Z,94938.16
2023-04-29T13:03:10.266Z,94938.88
2023-04-29T13:05:39.508Z,94943.50
2023-04-29T13:08:08.889Z,94948.09
2023-04-29T13:10:37.736Z,94958.09
2023-04-29T13:13:06.849Z,94966.53
2023-04-29T13:15:36.188Z,94963.88
2023-04-29T13:18:05.428Z,94955.41
2023-04-29T13:20:40.808Z,94954.66
2023-04-29T13:23:12.738Z,94958.16
2023-04-29T13:25:41.692Z,94955.84
2023-04-29T13:28:10.611Z,94950.88
2023-04-29T13:30:39.575Z,94936.28
2023-04-29T13:33:12.255Z,94939.38
2023-04-29T13:35:42.883Z,94931.66
2023-04-29T13:38:11.789Z,94921.69
2023-04-29T13:40:45.926Z,94935.16
2023-04-29T13:43:23.507Z,94931.31
2023-04-29T13:46:01.666Z,94924.38
2023-04-29T13:49:08.133Z,94932.44
2023-04-29T14:04:01.031Z,94910.16
2023-04-29T14:06:32.920Z,94916.31
2023-04-29T14:09:03.573Z,94915.16
2023-04-29T14:11:37.147Z,94914.00
2023-04-29T14:14:06.285Z,94912.84
2023-04-29T14:16:35.118Z,94921.69
2023-04-29T14:19:04.923Z,94917.09
2023-04-29T14:21:34.246Z,94911.31
2023-04-29T14:24:04.062Z,94910.56
2023-04-29T14:26:32.964Z,94905.53
2023-04-29T14:29:01.872Z,94903.22
2023-04-29T14:31:35.316Z,94910.16
2023-04-29T14:34:04.723Z,94902.84
2023-04-29T14:36:33.731Z,94892.09
2023-04-29T14:39:04.466Z,94888.25
2023-04-29T14:41:33.329Z,94894.03
2023-04-29T14:44:02.142Z,94884.03
2023-04-29T14:46:33.134Z,94880.59
2023-04-29T14:49:02.525Z,94866.75
2023-04-29T14:51:31.823Z,94869.06
2023-04-29T14:54:00.631Z,94856.00
2023-04-29T14:56:29.611Z,94849.09
2023-04-29T14:58:58.477Z,94836.03
2023-04-29T15:01:29.281Z,94843.31
2023-04-29T15:04:00.776Z,94851.00
2023-04-29T15:06:30.059Z,94831.03
2023-04-29T15:08:58.983Z,94833.72
2023-04-29T15:11:28.060Z,94830.63
2023-04-29T15:13:57.227Z,94835.63
2023-04-29T15:16:26.111Z,94837.88
2023-04-29T15:18:55.115Z,94838.59
2023-04-29T15:21:24.067Z,94836.25
2023-04-29T15:23:52.887Z,94849.63
2023-04-29T15:26:22.487Z,94851.16
2023-04-29T15:28:51.446Z,94850.75
2023-04-29T15:31:21.802Z,94850.34
2023-04-29T15:33:55.834Z,94862.66
2023-04-29T15:36:33.804Z,94851.16
2023-04-29T15:39:02.708Z,94861.47
2023-04-29T15:41:31.539Z,94867.59
2023-04-29T15:44:00.310Z,94872.56
2023-04-29T15:46:31.535Z,94874.84
2023-04-29T15:49:01.304Z,94876.00
2023-04-29T15:51:30.136Z,94862.94
2023-04-29T15:53:59.044Z,94882.13
2023-04-29T15:56:27.826Z,94884.41
2023-04-29T15:58:57.266Z,94882.84
2023-04-29T16:01:28.833Z,94892.84
2023-04-29T16:03:59.091Z,94891.72
2023-04-29T16:06:28.772Z,94893.66
2023-04-29T16:08:58.064Z,94893.63
2023-04-29T16:11:27.684Z,94885.94
2023-04-29T16:13:56.594Z,94880.97
2023-04-29T16:16:26.076Z,94890.91
2023-04-29T16:18:55.164Z,94891.69
2023-04-29T16:21:24.740Z,94890.94
2023-04-29T16:23:53.774Z,94889.03
2023-04-29T16:26:22.717Z,94895.09
2023-04-29T16:28:52.292Z,94899.25
2023-04-29T16:31:21.146Z,94891.19
2023-04-29T16:33:50.095Z,94891.91
2023-04-29T16:36:19.134Z,94902.63
2023-04-29T16:38:48.262Z,94914.81
2023-04-29T16:41:17.073Z,94910.13
2023-04-29T16:43:46.296Z,94917.72
2023-04-29T16:46:15.317Z,94910.75
2023-04-29T16:48:44.155Z,94921.03
2023-04-29T16:51:13.325Z,94924.47
2023-04-29T16:53:42.135Z,94924.03
2023-04-29T16:56:11.724Z,94925.09
2023-04-29T16:58:40.527Z,94930.03
2023-04-29T17:01:10.356Z,94934.53
2023-04-29T17:03:39.523Z,94934.84
2023-04-29T17:06:08.463Z,94937.03
2023-04-29T17:08:37.709Z,94939.66
2023-04-29T17:11:06.894Z,94944.56
2023-04-29T17:13:35.747Z,94950.59
2023-04-29T17:16:04.831Z,94948.63
2023-04-29T17:18:33.778Z,94950.81
2023-04-29T17:21:03.312Z,94942.59
2023-04-29T17:23:32.481Z,94956.75
2023-04-29T17:26:01.943Z,94958.56
2023-04-29T17:28:31.273Z,94961.56
2023-04-29T17:31:01.782Z,94962.94
2023-04-29T17:33:35.654Z,94967.88
2023-04-29T17:36:05.764Z,94965.88
2023-04-29T17:38:34.764Z,94968.88
2023-04-29T17:41:04.247Z,94969.53
2023-04-29T17:43:35.973Z,94968.66
2023-04-29T17:46:04.986Z,94966.28
2023-04-29T17:48:33.897Z,94958.56
2023-04-29T17:51:02.667Z,94964.78
2023-04-29T17:53:33.605Z,94955.66
2023-04-29T17:56:02.386Z,94961.00
2023-04-29T17:58:31.250Z,94965.50
2023-04-29T18:01:00.947Z,94961.19
2023-04-29T18:03:31.430Z,94956.91
2023-04-29T18:06:00.254Z,94955.69
2023-04-29T18:08:29.118Z,94959.72
2023-04-29T18:10:57.908Z,94960.38
2023-04-29T18:13:27.216Z,94959.91
2023-04-29T18:15:56.205Z,94962.88
2023-04-29T18:18:25.145Z,94957.81
2023-04-29T18:20:53.930Z,94959.25
2023-04-29T18:23:23.297Z,94962.50
2023-04-29T18:25:52.166Z,94961.22
2023-04-29T18:28:25.112Z,94956.47
2023-04-29T18:30:56.233Z,94966.69
2023-04-29T18:33:27.075Z,94971.19
2023-04-29T18:35:56.176Z,94960.03
2023-04-29T18:38:25.603Z,94957.63
2023-04-29T18:40:54.451Z,94959.84
2023-04-29T18:43:28.829Z,94953.69
2023-04-29T18:46:00.217Z,94961.19
2023-04-29T18:48:30.266Z,94965.34
2023-04-29T18:51:04.703Z,94958.75
2023-04-29T18:53:34.073Z,94965.13
2023-04-29T18:56:03.841Z,94961.56
2023-04-29T18:58:32.807Z,94960.34
2023-04-29T19:01:03.680Z,94966.38
2023-04-29T19:03:32.880Z,94957.13
2023-04-29T19:06:01.862Z,94964.28
2023-04-29T19:08:30.728Z,94967.69
2023-04-29T19:11:00.791Z,94969.53
2023-04-29T19:13:29.994Z,94971.69
2023-04-29T19:15:59.926Z,94977.72
2023-04-29T19:18:29.149Z,94981.50
2023-04-29T19:20:58.109Z,94985.28
2023-04-29T19:23:26.909Z,94973.00
2023-04-29T19:25:55.873Z,94974.47
2023-04-29T19:28:24.691Z,94970.97
2023-04-29T19:30:53.596Z,94974.72
2023-04-29T19:33:22.519Z,94980.00
2023-04-29T19:35:51.311Z,94978.88
2023-04-29T19:38:20.287Z,94975.34
2023-04-29T19:40:49.520Z,94983.00
2023-04-29T19:43:18.569Z,94978.81
2023-04-29T19:45:47.560Z,94981.72
2023-04-29T19:48:16.954Z,94975.97
2023-04-29T19:50:45.936Z,94980.88
2023-04-29T19:53:14.823Z,94979.22
2023-04-29T19:55:43.769Z,94982.59
2023-04-29T19:58:12.825Z,94985.59
2023-04-29T20:00:42.247Z,94991.28
2023-04-29T20:03:11.353Z,94988.88
2023-04-29T20:05:41.630Z,94990.44
2023-04-29T20:08:10.579Z,94986.13
2023-04-29T20:10:39.400Z,94985.00
2023-04-29T20:13:08.495Z,94987.16
2023-04-29T20:15:37.326Z,94988.97
2023-04-29T20:18:06.139Z,94987.75
2023-04-29T20:20:34.971Z,94991.00
2023-04-29T20:23:03.857Z,94990.94
2023-04-29T20:25:33.634Z,94994.38
2023-04-29T20:28:03.282Z,94999.25
2023-04-29T20:30:32.526Z,94991.19
2023-04-29T20:33:01.868Z,94995.72
2023-04-29T20:35:30.990Z,94992.66
2023-04-29T20:37:59.949Z,94983.03
2023-04-29T20:40:28.734Z,94992.66
2023-04-29T20:42:58.245Z,94996.00
2023-04-29T20:45:27.160Z,94990.16
2023-04-29T20:47:56.038Z,94988.94
2023-04-29T20:50:25.324Z,94980.16
2023-04-29T20:52:54.104Z,94982.84
2023-04-29T20:55:23.152Z,94984.75
2023-04-29T20:57:51.926Z,94981.72
2023-04-29T21:00:21.967Z,94985.50
2023-04-29T21:02:51.351Z,94981.56
2023-04-29T21:05:20.325Z,94977.00
2023-04-29T21:07:49.888Z,94986.78
2023-04-29T21:10:18.839Z,94979.03
2023-04-29T21:12:49.396Z,94990.38
2023-04-29T21:15:18.317Z,94992.94
2023-04-29T21:17:47.462Z,94990.59
2023-04-29T21:20:17.763Z,94991.66
2023-04-29T21:22:46.620Z,94994.19
2023-04-29T21:25:15.523Z,94984.25
2023-04-29T21:27:44.343Z,94990.31
2023-04-29T21:30:13.670Z,94983.47
2023-04-29T21:32:42.646Z,94982.59
2023-04-29T21:35:11.840Z,94983.72
2023-04-29T21:37:40.665Z,94977.94
2023-04-29T21:40:10.155Z,94976.72
2023-04-29T21:42:39.361Z,94986.28
2023-04-29T21:45:08.788Z,94980.19
2023-04-29T21:47:37.766Z,94976.41
2023-04-29T21:50:08.381Z,94972.19
2023-04-29T21:52:37.443Z,94975.22
2023-04-29T21:55:07.235Z,94980.59
2023-04-29T21:57:44.152Z,94984.06
2023-04-29T22:00:40.794Z,94983.72
2023-04-29T22:03:11.604Z,94977.28
2023-04-29T22:05:40.352Z,94976.50
2023-04-29T22:08:09.332Z,94979.25
2023-04-29T22:10:40.652Z,94970.47
2023-04-29T22:13:09.485Z,94973.16
2023-04-29T22:15:38.492Z,94967.81
2023-04-29T22:18:07.549Z,94969.72
2023-04-29T22:20:36.636Z,94969.47
2023-04-29T22:23:05.545Z,94970.78
2023-04-29T22:25:34.302Z,94973.03
2023-04-29T22:28:03.114Z,94969.88
2023-04-29T22:30:31.901Z,94974.00
2023-04-29T22:33:00.744Z,94979.69
2023-04-29T22:35:29.633Z,94962.56
2023-04-29T22:37:58.567Z,94971.00
2023-04-29T22:40:27.458Z,94981.13
2023-04-29T22:42:56.241Z,94982.84
2023-04-29T22:45:24.969Z,94977.16
2023-04-29T22:47:53.776Z,94981.13
2023-04-29T22:50:22.613Z,94984.63
2023-04-29T22:52:51.460Z,94976.13
2023-04-29T22:55:20.218Z,94980.69
2023-04-29T22:57:52.268Z,94980.84
2023-04-29T23:00:22.678Z,94966.97
2023-04-29T23:02:51.764Z,94970.38
2023-04-29T23:05:20.600Z,94964.00
2023-04-29T23:07:49.686Z,94964.50
2023-04-29T23:10:18.514Z,94963.56
2023-04-29T23:12:47.360Z,94974.97
2023-04-29T23:15:16.368Z,94972.66
2023-04-29T23:17:45.292Z,94979.03
2023-04-29T23:20:14.285Z,94957.72
2023-04-29T23:22:43.032Z,94966.56
2023-04-29T23:25:11.952Z,94964.72
2023-04-29T23:27:40.838Z,94961.66
2023-04-29T23:30:10.368Z,94973.47
2023-04-29T23:32:39.282Z,94968.94
2023-04-29T23:35:09.146Z,94957.91
2023-04-29T23:37:39.144Z,94968.25
2023-04-29T23:40:09.836Z,94969.66
2023-04-29T23:42:38.664Z,94970.31
2023-04-29T23:45:08.144Z,94968.63
2023-04-29T23:47:37.084Z,94969.69
2023-04-29T23:50:06.513Z,94958.94
2023-04-29T23:52:35.573Z,94960.06
2023-04-29T23:55:04.999Z,94959.03
2023-04-29T23:57:33.830Z,94965.97
